createdAt,value
2022-11-24T00:00:34.047Z,-0.95
2022-11-24T00:15:36.006Z,-0.87
2022-11-24T00:30:38.069Z,-0.80
2022-11-24T00:45:40.308Z,-0.81
2022-11-24T01:00:42.370Z,-0.85
2022-11-24T01:15:44.358Z,-0.99
2022-11-24T01:30:47.723Z,-0.92
2022-11-24T01:45:51.234Z,-0.94
2022-11-24T02:00:54.207Z,-0.96
2022-11-24T02:15:56.396Z,-1.03
2022-11-24T02:31:01.296Z,-0.96
2022-11-24T02:46:03.388Z,-0.85
2022-11-24T03:01:05.539Z,-0.81
2022-11-24T03:16:10.858Z,-0.80
2022-11-24T03:31:13.531Z,-0.84
2022-11-24T03:46:15.548Z,-0.78
2022-11-24T04:01:17.546Z,-0.80
2022-11-24T04:16:19.562Z,-0.77
2022-11-24T04:31:21.530Z,-0.80
2022-11-24T04:46:23.505Z,-0.67
2022-11-24T05:01:25.536Z,-0.64
2022-11-24T05:16:27.598Z,-0.60
2022-11-24T05:31:29.578Z,-0.54
2022-11-24T05:46:31.546Z,-0.53
2022-11-24T06:01:33.490Z,-0.50
2022-11-24T06:16:35.479Z,-0.43
2022-11-24T06:31:37.665Z,-0.37
2022-11-24T06:46:39.635Z,-0.47
2022-11-24T07:01:41.579Z,-0.43
2022-11-24T07:16:43.531Z,-0.40
2022-11-24T07:31:46.267Z,-0.26
2022-11-24T07:46:50.339Z,-0.16
2022-11-24T08:01:52.368Z,-0.16
2022-11-24T08:16:54.365Z,0.08
2022-11-24T08:31:59.342Z,0.06
2022-11-24T08:47:01.272Z,0.21
2022-11-24T09:02:03.258Z,0.29
2022-11-24T09:17:05.371Z,0.49
2022-11-24T09:32:07.338Z,0.60
2022-11-24T09:47:42.849Z,0.83
2022-11-24T10:02:48.626Z,0.68
2022-11-24T10:18:16.814Z,0.64
2022-11-24T10:33:27.097Z,0.74
2022-11-24T10:48:39.959Z,0.88
2022-11-24T11:03:50.754Z,0.87
2022-11-24T11:18:53.491Z,1.04
2022-11-24T11:34:21.899Z,1.05
2022-11-24T11:49:27.220Z,0.88
2022-11-24T12:04:47.689Z,1.04
2022-11-24T12:19:49.441Z,1.08
2022-11-24T12:34:57.256Z,0.84
2022-11-24T12:50:18.962Z,0.77
2022-11-24T13:05:24.041Z,0.71
2022-11-24T13:20:32.503Z,0.70
2022-11-24T13:35:34.361Z,0.74
2022-11-24T13:50:52.324Z,0.64
2022-11-24T14:05:57.141Z,0.44
2022-11-24T14:21:01.790Z,0.40
2022-11-24T14:36:04.004Z,0.43
2022-11-24T14:51:15.246Z,0.33
2022-11-24T15:06:20.100Z,0.32
2022-11-24T15:21:36.261Z,0.19
2022-11-24T15:36:38.292Z,0.05
2022-11-24T15:51:44.132Z,0.01
2022-11-24T16:06:46.088Z,0.05
2022-11-24T16:21:48.959Z,0.02
2022-11-24T16:36:50.848Z,0.03
2022-11-24T16:51:54.054Z,-0.05
2022-11-24T17:06:58.881Z,-0.02
2022-11-24T17:22:00.930Z,0.02
2022-11-24T17:37:02.906Z,0.02
2022-11-24T17:52:04.988Z,0.01
2022-11-24T18:07:06.847Z,0.08
2022-11-24T18:22:08.719Z,0.06
2022-11-24T18:37:13.706Z,0.03
2022-11-24T18:52:15.704Z,0.01
2022-11-24T19:07:17.651Z,-0.04
2022-11-24T19:22:19.741Z,0.11
2022-11-24T19:37:23.697Z,0.09
2022-11-24T19:52:27.491Z,0.18
2022-11-24T20:07:29.553Z,0.18
2022-11-24T20:22:31.999Z,0.22
2022-11-24T20:37:49.349Z,0.21
2022-11-24T20:52:51.502Z,0.08
2022-11-24T21:07:54.216Z,0.09
2022-11-24T21:22:56.160Z,0.09
2022-11-24T21:37:58.722Z,0.19
2022-11-24T21:53:03.461Z,0.18
2022-11-24T22:08:05.780Z,0.16
2022-11-24T22:23:07.719Z,0.21
2022-11-24T22:38:09.700Z,0.29
2022-11-24T22:53:11.640Z,0.35
2022-11-24T23:08:13.599Z,0.33
2022-11-24T23:23:15.467Z,0.33
2022-11-24T23:38:17.358Z,0.40
2022-11-24T23:53:19.608Z,0.40
